الصفحة الرئيسية
METAR-TAF:

METAR-TAF

مطار :

Pipestone Municipal Airport

Pipestone, مينيسوتا, الولايات المتحدة

دائرة عرض: 43-59N, خط طول: 096-19W, ارتفاع: 529 متر

مراقبة الطقس الحالي

تاريخ ووقت الإصدار 15 دقيقة قبل الساعة 12:35UTC
رياح هادئة
درجة الحرارة -3°درجة مئوية
الرطوبة 100%
ضغط 1012 hPa
الرؤية: 4.8 كم
غيوم متفرقة على ارتفاع 100 قدم
هطول مجهول

METAR: KPQN 131235Z AUTO 00000KT 3SM UP SCT001 M03/M03 A2987 RMK AO2

زمن: 06:50 (12:50 UTC)


TAF: مفقودة

أرصاد الطقس والتوقعات من أكثر من 4000 مطار (تقارير الطقس للمطار METAR والتنبؤ بالطقس بالمطارTAF).

المحطات المتاحة هي النقط الصفراء والحمراء على الخريطة.

حرك المؤشر فوق النقطة لمعرفة اسم المحطة.

ثم انقر لمعرفة أرصاد وتوقعات الطقس.

لتغيير الخارطة: اضغط على الأزرار الخضراء مع رمز الصليب الأسود للتكبير. على الزر الأخضر مع شرطة للتصغير، أو على الأسهم الخضراء للخرائط المجاورة.


METAR-TAF: